Time;durP1;ratioP1;P1;durP2;ratioP2;P2;SDS_P1;SDS_P2;PMS_P1;PMS_P2;Temp;Humidity;BMP_temperature;BMP_pressure;BME280_temperature;BME280_humidity;BME280_pressure;Samples;Min_cycle;Max_cycle;Signal;HPM_P1;HPM_P2
2023/01/19 00:01:21;;;;;;;3.22;2.17;;;;;;;3.84;100.00;98938.28;5025488;28;20099;-68
2023/01/19 00:03:46;;;;;;;3.72;1.83;;;;;;;3.84;100.00;98946.00;5026894;28;20033;-68
2023/01/19 00:06:12;;;;;;;2.80;1.67;;;;;;;3.85;100.00;98943.28;5024280;28;20153;-68
2023/01/19 00:08:38;;;;;;;4.43;2.10;;;;;;;3.90;100.00;98941.13;5023720;28;20108;-68
2023/01/19 00:11:03;;;;;;;3.45;1.80;;;;;;;3.97;100.00;98936.22;5025234;28;20135;-69
2023/01/19 00:13:29;;;;;;;2.80;1.92;;;;;;;4.01;100.00;98945.28;5026168;28;20052;-69
2023/01/19 00:15:55;;;;;;;3.03;2.47;;;;;;;4.03;100.00;98943.41;5023409;28;20030;-69
2023/01/19 00:18:20;;;;;;;3.63;2.20;;;;;;;4.04;100.00;98939.88;5027722;28;20080;-68
2023/01/19 00:20:47;;;;;;;3.92;2.47;;;;;;;4.05;100.00;98944.06;5028186;28;20035;-69
2023/01/19 00:23:13;;;;;;;3.90;2.20;;;;;;;4.06;100.00;98953.44;5029488;28;20064;-68
2023/01/19 00:25:41;;;;;;;3.53;1.92;;;;;;;4.02;100.00;98952.06;5026056;28;20105;-68
2023/01/19 00:28:11;;;;;;;2.60;1.77;;;;;;;3.88;100.00;98945.59;5025746;28;20028;-67
2023/01/19 00:30:37;;;;;;;4.00;1.52;;;;;;;3.89;100.00;98949.78;5022886;28;20037;-69
2023/01/19 00:33:03;;;;;;;3.25;1.90;;;;;;;3.88;100.00;98955.09;5024613;28;20037;-68
2023/01/19 00:35:28;;;;;;;5.43;1.67;;;;;;;3.88;100.00;98955.09;5025958;28;20499;-67
2023/01/19 00:37:55;;;;;;;3.60;2.45;;;;;;;3.90;100.00;98955.75;5025490;28;20021;-68
2023/01/19 00:40:21;;;;;;;5.20;1.90;;;;;;;3.97;100.00;98957.66;5026487;28;20045;-68
2023/01/19 00:42:47;;;;;;;3.97;2.60;;;;;;;3.99;100.00;98958.31;5029048;28;20036;-68
2023/01/19 00:45:19;;;;;;;3.83;2.28;;;;;;;4.00;100.00;98961.72;5023831;28;20112;-68
2023/01/19 00:47:46;;;;;;;4.00;2.28;;;;;;;4.03;100.00;98966.59;5031301;28;20029;-68
2023/01/19 00:50:12;;;;;;;4.18;2.20;;;;;;;4.05;100.00;98962.09;5028612;28;20111;-69
2023/01/19 00:52:42;;;;;;;4.75;2.10;;;;;;;4.02;100.00;98964.97;5026732;28;20022;-68
2023/01/19 00:55:09;;;;;;;3.75;2.33;;;;;;;4.05;100.00;98958.72;5023595;28;20038;-68
2023/01/19 00:57:34;;;;;;;5.00;2.47;;;;;;;4.08;100.00;98966.16;5024398;28;20037;-68
2023/01/19 01:00:00;;;;;;;3.13;2.50;;;;;;;4.11;100.00;98966.72;5029701;28;20029;-69
2023/01/19 01:02:26;;;;;;;3.22;2.15;;;;;;;4.12;100.00;98970.91;5025723;28;20063;-68
2023/01/19 01:04:53;;;;;;;3.70;2.65;;;;;;;4.10;100.00;98970.25;5027223;28;20025;-68
2023/01/19 01:07:20;;;;;;;4.05;2.25;;;;;;;4.11;100.00;98977.03;5025823;28;20127;-68
2023/01/19 01:09:46;;;;;;;4.82;2.53;;;;;;;4.13;100.00;98984.63;5025837;28;20095;-69
2023/01/19 01:12:11;;;;;;;3.65;2.10;;;;;;;4.14;100.00;98981.09;5029686;28;20033;-68
2023/01/19 01:14:36;;;;;;;4.97;2.88;;;;;;;4.10;100.00;98977.16;5026584;28;20043;-68
2023/01/19 01:17:02;;;;;;;5.88;2.90;;;;;;;4.07;100.00;98978.25;5024397;28;20029;-69
2023/01/19 01:19:28;;;;;;;4.78;2.15;;;;;;;4.03;100.00;98976.91;5025904;28;20076;-69
2023/01/19 01:21:54;;;;;;;2.60;1.67;;;;;;;4.03;100.00;98979.47;5024831;28;20025;-68
2023/01/19 01:24:20;;;;;;;3.55;2.53;;;;;;;4.06;100.00;98975.81;5025794;28;20037;-68
2023/01/19 01:26:45;;;;;;;3.92;2.20;;;;;;;3.98;100.00;98974.72;5023669;28;20029;-68
2023/01/19 01:29:11;;;;;;;4.07;2.33;;;;;;;4.02;100.00;98977.03;5025905;28;20083;-69
2023/01/19 01:31:37;;;;;;;3.63;2.30;;;;;;;4.00;100.00;98972.84;5025451;28;20029;-69
2023/01/19 01:34:02;;;;;;;4.72;2.25;;;;;;;4.00;100.00;98974.59;5025292;28;20381;-69
2023/01/19 01:36:31;;;;;;;8.82;2.17;;;;;;;3.98;100.00;98976.50;5027409;28;20049;-69
2023/01/19 01:38:57;;;;;;;4.53;2.83;;;;;;;3.98;100.00;98963.63;5034645;28;20029;-68
2023/01/19 01:41:22;;;;;;;3.58;2.28;;;;;;;4.00;100.00;98964.28;5027394;28;20090;-69
2023/01/19 01:43:52;;;;;;;4.45;2.38;;;;;;;4.03;100.00;98966.59;5032851;28;20061;-69
2023/01/19 01:46:18;;;;;;;4.07;2.50;;;;;;;4.06;100.00;98963.72;5033980;28;20037;-68
2023/01/19 01:49:09;;;;;;;3.90;2.60;;;;;;;4.09;100.00;98966.03;5033512;28;20026;-68
2023/01/19 01:51:55;;;;;;;4.13;2.58;;;;;;;4.06;100.00;98966.31;5029362;28;20041;-68
2023/01/19 01:54:21;;;;;;;5.03;2.33;;;;;;;4.08;100.00;98961.84;5028077;28;20503;-68
2023/01/19 01:56:50;;;;;;;4.95;2.60;;;;;;;4.09;100.00;98954.91;5032710;28;20113;-69
2023/01/19 01:59:28;;;;;;;4.07;2.28;;;;;;;4.05;100.00;98961.28;5035625;28;20036;-68
2023/01/19 02:04:54;;;;;;;3.90;2.22;;;;;;;4.03;100.00;98970.94;5031357;28;20055;-68
2023/01/19 02:15:43;;;;;;;3.75;2.10;;;;;;;4.09;100.00;98963.47;5031068;28;20075;-68
2023/01/19 02:18:09;;;;;;;5.53;1.75;;;;;;;4.07;100.00;98967.13;5027548;28;20477;-69
2023/01/19 02:20:36;;;;;;;5.00;2.38;;;;;;;4.08;100.00;98967.00;5029142;28;20029;-69
2023/01/19 02:23:07;;;;;;;2.20;1.38;;;;;;;4.11;100.00;98974.44;5035029;28;20112;-69
2023/01/19 02:25:32;;;;;;;2.47;1.55;;;;;;;4.09;100.00;98971.19;5028393;28;20091;-69
2023/01/19 02:27:59;;;;;;;5.32;1.05;;;;;;;4.09;100.00;98980.69;5034633;28;20033;-68
2023/01/19 02:30:25;;;;;;;3.58;1.63;;;;;;;4.09;100.00;98980.69;5031297;28;20069;-68
2023/01/19 02:32:51;;;;;;;2.40;1.40;;;;;;;4.09;100.00;98980.69;5025161;28;20065;-69
2023/01/19 02:35:16;;;;;;;1.92;1.33;;;;;;;4.12;100.00;98991.53;5027616;28;20113;-68
2023/01/19 02:37:43;;;;;;;2.65;1.73;;;;;;;4.14;100.00;98988.81;5028240;28;20128;-68
2023/01/19 02:40:18;;;;;;;2.83;1.38;;;;;;;4.16;100.00;98987.72;5028011;28;20037;-69
2023/01/19 02:42:48;;;;;;;2.45;1.40;;;;;;;4.18;100.00;98982.44;5028796;28;20033;-68
2023/01/19 02:45:18;;;;;;;1.13;0.70;;;;;;;4.16;100.00;98985.16;5028586;28;20120;-68
2023/01/19 02:47:46;;;;;;;3.80;1.27;;;;;;;4.13;100.00;98984.63;5024984;28;20049;-69
2023/01/19 02:50:52;;;;;;;2.97;1.23;;;;;;;4.10;100.00;98988.28;5025737;28;20049;-69
2023/01/19 02:53:31;;;;;;;0.50;0.20;;;;;;;4.02;100.00;98982.19;4996356;28;20539;-69
2023/01/19 02:56:34;;;;;;;0.70;0.20;;;;;;;4.03;100.00;98974.31;5003047;28;20125;-68
2023/01/19 02:59:12;;;;;;;1.20;0.50;;;;;;;4.07;100.00;98974.84;4996926;28;20076;-69
2023/01/19 03:01:40;;;;;;;1.15;0.50;;;;;;;4.09;100.00;98972.94;5002771;28;20497;-69
2023/01/19 03:04:12;;;;;;;2.05;0.50;;;;;;;4.11;100.00;98969.28;5004377;28;20042;-68
2023/01/19 03:07:02;;;;;;;2.58;0.55;;;;;;;4.12;100.00;98973.50;5001432;28;20398;-69
2023/01/19 03:09:42;;;;;;;1.95;0.77;;;;;;;4.11;100.00;98977.03;5000670;28;20545;-69
2023/01/19 03:12:30;;;;;;;1.15;0.80;;;;;;;4.07;100.00;98973.09;5002162;28;20413;-68
2023/01/19 03:15:01;;;;;;;2.10;0.90;;;;;;;4.08;100.00;98966.16;5005746;28;20052;-68
2023/01/19 03:17:30;;;;;;;2.15;0.90;;;;;;;4.08;100.00;98979.06;4995757;28;20037;-68
2023/01/19 03:19:56;;;;;;;1.75;1.17;;;;;;;4.06;100.00;98976.63;5009709;28;20159;-68
2023/01/19 03:22:27;;;;;;;1.80;0.80;;;;;;;4.08;100.00;98982.44;4997879;28;20061;-68
2023/01/19 03:24:57;;;;;;;1.70;1.10;;;;;;;4.09;100.00;98981.50;4999811;28;20406;-68
2023/01/19 03:27:32;;;;;;;4.28;1.15;;;;;;;4.09;100.00;98988.41;5014990;28;20095;-68
2023/01/19 03:30:05;;;;;;;1.95;0.90;;;;;;;4.09;100.00;98986.66;5032334;28;20361;-69
2023/01/19 03:32:38;;;;;;;2.72;1.08;;;;;;;4.08;100.00;98989.38;5034613;28;20129;-69
2023/01/19 03:35:11;;;;;;;2.90;1.55;;;;;;;4.07;100.00;98993.72;5028234;28;20033;-69
2023/01/19 03:37:40;;;;;;;2.25;1.10;;;;;;;4.06;100.00;99001.59;5031898;28;20117;-68
2023/01/19 03:40:07;;;;;;;3.13;2.28;;;;;;;4.09;100.00;98993.56;5029902;28;20060;-68
2023/01/19 03:42:35;;;;;;;3.35;2.30;;;;;;;4.14;100.00;98994.78;5025806;28;20110;-69
2023/01/19 03:45:01;;;;;;;4.80;2.75;;;;;;;4.17;100.00;98999.66;5028623;28;20037;-69
2023/01/19 03:47:27;;;;;;;4.75;3.08;;;;;;;4.17;100.00;98997.09;5024731;28;21767;-68
2023/01/19 03:49:55;;;;;;;4.55;2.63;;;;;;;4.19;100.00;98996.94;5032672;28;20513;-68
2023/01/19 03:52:28;;;;;;;5.20;3.38;;;;;;;4.20;100.00;98996.00;5033180;28;20472;-68
2023/01/19 03:54:54;;;;;;;6.45;2.78;;;;;;;4.20;100.00;98993.41;5032781;28;20512;-68
2023/01/19 03:57:20;;;;;;;7.05;3.90;;;;;;;4.19;100.00;98990.03;5027260;28;20030;-69
2023/01/19 03:59:45;;;;;;;5.28;3.38;;;;;;;4.17;100.00;98999.66;5028697;28;20078;-68
2023/01/19 04:02:10;;;;;;;7.82;4.20;;;;;;;4.19;100.00;99009.84;5027053;28;20147;-68
2023/01/19 04:04:36;;;;;;;6.78;4.18;;;;;;;4.20;100.00;99003.72;5027271;28;20043;-69
2023/01/19 04:07:01;;;;;;;7.90;4.32;;;;;;;4.20;100.00;99003.72;5029901;28;20032;-68
2023/01/19 04:09:27;;;;;;;9.60;5.28;;;;;;;4.20;100.00;98999.38;5029853;28;20129;-68
2023/01/19 04:11:52;;;;;;;7.10;4.03;;;;;;;4.22;100.00;99007.78;5025393;28;20428;-68
2023/01/19 04:14:17;;;;;;;6.25;4.07;;;;;;;4.15;100.00;99016.22;5027206;28;20037;-68
2023/01/19 04:16:43;;;;;;;6.40;4.05;;;;;;;4.07;100.00;99008.38;5026430;28;20051;-69
2023/01/19 04:19:08;;;;;;;6.07;4.68;;;;;;;4.07;100.00;99010.94;5024861;28;20064;-68
2023/01/19 04:21:34;;;;;;;6.78;4.03;;;;;;;4.08;100.00;99015.97;5021829;28;20049;-68
2023/01/19 04:23:59;;;;;;;7.38;4.63;;;;;;;4.06;100.00;99007.56;5025905;28;20417;-68
2023/01/19 04:26:25;;;;;;;5.82;4.50;;;;;;;4.08;100.00;99015.16;5029079;28;20112;-68
2023/01/19 04:28:50;;;;;;;5.72;3.17;;;;;;;4.05;100.00;99020.56;5027198;28;20183;-68
2023/01/19 04:31:18;;;;;;;5.30;3.50;;;;;;;4.03;100.00;99018.13;5042067;28;20034;-69
2023/01/19 04:33:43;;;;;;;9.60;5.82;;;;;;;3.97;100.00;99024.66;5025298;28;20040;-69
2023/01/19 04:36:09;;;;;;;14.38;8.43;;;;;;;3.97;100.00;99024.66;5022994;28;20400;-69
2023/01/19 04:38:34;;;;;;;13.40;8.45;;;;;;;3.98;100.00;99030.63;5024100;28;20496;-69
2023/01/19 04:41:00;;;;;;;11.27;8.23;;;;;;;3.99;100.00;99034.81;5024181;28;20081;-69
2023/01/19 04:43:25;;;;;;;10.65;8.30;;;;;;;4.04;100.00;99044.72;5025288;28;20444;-69
2023/01/19 04:45:51;;;;;;;14.35;8.98;;;;;;;4.04;100.00;99048.09;5020186;28;20046;-69
2023/01/19 04:48:17;;;;;;;16.25;11.23;;;;;;;4.07;100.00;99050.41;5025160;28;20048;-68
2023/01/19 04:50:43;;;;;;;18.15;12.77;;;;;;;4.10;100.00;99062.22;5026173;28;20094;-69
2023/01/19 04:53:09;;;;;;;18.42;11.23;;;;;;;4.08;100.00;99066.69;5025701;28;20055;-68
2023/01/19 04:55:36;;;;;;;14.25;10.27;;;;;;;4.04;100.00;99071.31;5025771;28;20929;-68
2023/01/19 04:58:02;;;;;;;8.23;5.85;;;;;;;4.06;100.00;99074.56;5029117;28;20107;-69
2023/01/19 05:00:27;;;;;;;11.68;7.40;;;;;;;4.05;100.00;99074.69;5028093;28;20123;-68
2023/01/19 05:02:52;;;;;;;11.77;8.23;;;;;;;4.07;100.00;99075.38;5028142;28;20116;-69
2023/01/19 05:05:18;;;;;;;14.00;8.05;;;;;;;4.09;100.00;99079.44;5025194;28;20052;-69
2023/01/19 05:07:44;;;;;;;10.95;7.45;;;;;;;4.11;100.00;99090.44;5027398;28;20036;-68
2023/01/19 05:10:10;;;;;;;10.80;7.68;;;;;;;4.03;100.00;99086.91;5024390;28;20053;-69
2023/01/19 05:12:37;;;;;;;9.55;6.45;;;;;;;3.96;100.00;99087.44;5026386;28;20057;-69
2023/01/19 05:15:03;;;;;;;9.80;5.90;;;;;;;3.93;100.00;99089.47;5034580;28;20029;-68
2023/01/19 05:17:29;;;;;;;11.43;6.22;;;;;;;3.98;100.00;99092.47;5029929;28;20048;-68
2023/01/19 05:19:54;;;;;;;13.25;7.60;;;;;;;3.98;100.00;99097.63;5028219;28;20034;-69
2023/01/19 05:22:19;;;;;;;9.35;6.72;;;;;;;3.98;100.00;99110.50;5034954;28;20140;-69
2023/01/19 05:24:45;;;;;;;11.57;6.82;;;;;;;3.98;100.00;99113.91;5035194;28;20449;-69
2023/01/19 05:27:10;;;;;;;13.25;9.88;;;;;;;3.99;100.00;99125.03;5029721;28;20036;-68
2023/01/19 05:29:36;;;;;;;25.40;14.60;;;;;;;4.03;100.00;99116.06;5031008;28;20495;-68
2023/01/19 05:32:01;;;;;;;2.80;1.45;;;;;;;3.80;100.00;99117.25;5034798;28;20033;-68
2023/01/19 05:34:27;;;;;;;0.55;0.00;;;;;;;3.34;100.00;99119.50;5029077;28;20037;-68
2023/01/19 05:36:52;;;;;;;0.20;0.00;;;;;;;3.15;100.00;99110.91;5031927;28;20048;-68
2023/01/19 05:39:18;;;;;;;0.00;0.00;;;;;;;3.00;100.00;99116.41;5034434;28;20099;-67
2023/01/19 05:41:44;;;;;;;0.00;0.00;;;;;;;2.92;100.00;99125.69;5029971;28;20378;-67
2023/01/19 05:44:10;;;;;;;0.10;0.00;;;;;;;2.87;100.00;99135.56;5034990;28;20041;-67
2023/01/19 05:46:35;;;;;;;0.00;0.00;;;;;;;2.79;100.00;99132.84;5028932;28;20029;-67
2023/01/19 05:49:03;;;;;;;0.05;0.00;;;;;;;2.75;100.00;99128.88;5034563;28;20441;-68
2023/01/19 05:51:33;;;;;;;0.00;0.00;;;;;;;2.69;100.00;99130.22;5037317;28;20086;-67
2023/01/19 05:54:00;;;;;;;0.00;0.00;;;;;;;2.71;100.00;99125.75;5031917;28;20033;-67
2023/01/19 05:56:25;;;;;;;0.00;0.00;;;;;;;2.71;100.00;99125.75;5029424;28;20047;-67
2023/01/19 05:58:51;;;;;;;0.00;0.00;;;;;;;2.72;100.00;99137.66;5029274;28;20033;-67
2023/01/19 06:01:16;;;;;;;0.15;0.00;;;;;;;2.70;100.00;99136.97;5028825;28;20072;-67
2023/01/19 06:03:41;;;;;;;0.00;0.00;;;;;;;2.81;100.00;99147.19;5030441;28;20033;-67
2023/01/19 06:06:07;;;;;;;0.00;0.00;;;;;;;2.84;100.00;99146.91;5029297;28;20035;-67
2023/01/19 06:08:33;;;;;;;0.10;0.00;;;;;;;2.82;100.00;99145.44;5030622;28;20065;-67
2023/01/19 06:10:58;;;;;;;0.30;0.08;;;;;;;2.83;100.00;99149.66;5026092;28;20496;-67
2023/01/19 06:13:23;;;;;;;0.10;0.00;;;;;;;2.86;100.00;99155.31;5024217;28;20041;-68
2023/01/19 06:15:55;;;;;;;0.55;0.10;;;;;;;2.84;100.00;99161.53;5024461;28;20033;-67
2023/01/19 06:18:21;;;;;;;0.20;0.00;;;;;;;2.85;100.00;99158.84;5027080;28;20432;-68
2023/01/19 06:20:46;;;;;;;0.20;0.00;;;;;;;2.84;100.00;99161.53;5031178;28;20028;-68
2023/01/19 06:23:11;;;;;;;0.00;0.00;;;;;;;2.84;100.00;99164.94;5029229;28;20076;-67
2023/01/19 06:25:38;;;;;;;1.13;0.08;;;;;;;2.87;100.00;99163.84;5027428;28;20380;-67
2023/01/19 06:28:04;;;;;;;0.15;0.00;;;;;;;2.87;100.00;99161.28;5027218;28;20095;-67
2023/01/19 06:30:29;;;;;;;0.30;0.00;;;;;;;2.86;100.00;99168.19;5031473;28;20431;-68
2023/01/19 06:32:54;;;;;;;2.17;0.00;;;;;;;2.85;100.00;99168.31;5028960;28;20087;-67
2023/01/19 06:35:20;;;;;;;1.73;0.10;;;;;;;2.85;100.00;99170.88;5025945;28;20030;-67
2023/01/19 06:37:45;;;;;;;0.60;0.03;;;;;;;2.84;100.00;99185.50;5028896;28;20160;-68
2023/01/19 06:40:11;;;;;;;0.20;0.00;;;;;;;2.85;100.00;99188.91;5025773;28;20622;-68
2023/01/19 06:42:36;;;;;;;0.13;0.00;;;;;;;2.88;100.00;99186.06;5029274;28;20041;-67
2023/01/19 06:45:02;;;;;;;1.27;0.13;;;;;;;2.86;100.00;99180.22;5027197;28;20037;-67
2023/01/19 06:47:28;;;;;;;0.82;0.20;;;;;;;2.84;100.00;99187.25;5026217;28;20029;-67
2023/01/19 06:49:53;;;;;;;0.20;0.00;;;;;;;2.82;100.00;99179.69;5027352;28;20045;-67
2023/01/19 06:52:19;;;;;;;0.73;0.10;;;;;;;2.88;100.00;99189.47;5034100;28;20032;-67
2023/01/19 06:54:45;;;;;;;0.43;0.00;;;;;;;2.86;100.00;99191.34;5028216;28;20033;-67
2023/01/19 06:57:10;;;;;;;0.10;0.00;;;;;;;2.85;100.00;99194.84;5029539;28;20358;-67
2023/01/19 06:59:37;;;;;;;0.10;0.00;;;;;;;2.86;100.00;99196.47;5027029;28;20045;-67
2023/01/19 07:02:03;;;;;;;0.57;0.10;;;;;;;2.84;100.00;99207.84;5026639;28;20123;-67
2023/01/19 07:04:28;;;;;;;1.05;0.10;;;;;;;2.86;100.00;99209.34;5028188;28;20558;-67
2023/01/19 07:06:53;;;;;;;3.00;0.28;;;;;;;2.86;100.00;99211.09;5036370;28;20113;-68
2023/01/19 07:09:19;;;;;;;1.65;0.35;;;;;;;2.91;100.00;99222.66;5028125;28;20126;-67
2023/01/19 07:11:45;;;;;;;1.88;0.10;;;;;;;2.86;100.00;99226.53;5028622;28;20038;-67
2023/01/19 07:14:11;;;;;;;0.40;0.10;;;;;;;2.82;100.00;99233.72;5030623;28;20118;-67
2023/01/19 07:16:36;;;;;;;1.08;0.00;;;;;;;2.86;100.00;99241.97;5035270;28;20184;-67
2023/01/19 07:19:03;;;;;;;0.10;0.00;;;;;;;2.85;100.00;99251.44;5029346;28;20021;-67
2023/01/19 07:21:28;;;;;;;0.10;0.00;;;;;;;2.87;100.00;99259.03;5030221;28;20129;-68
2023/01/19 07:23:54;;;;;;;0.20;0.00;;;;;;;2.89;100.00;99263.13;5028572;28;20124;-68
2023/01/19 07:26:20;;;;;;;0.10;0.00;;;;;;;2.91;100.00;99261.25;5030379;28;20117;-68
2023/01/19 07:28:48;;;;;;;0.10;0.00;;;;;;;2.96;100.00;99266.00;5028987;28;20106;-68
2023/01/19 07:31:14;;;;;;;2.85;1.17;;;;;;;2.98;100.00;99264.13;5030325;28;20029;-68
2023/01/19 07:33:39;;;;;;;1.00;0.30;;;;;;;3.07;100.00;99267.72;5027072;28;20041;-68
2023/01/19 07:36:05;;;;;;;3.42;0.30;;;;;;;3.04;100.00;99262.81;5032244;28;20060;-68
2023/01/19 07:38:31;;;;;;;2.25;0.13;;;;;;;3.03;100.00;99274.88;5027023;28;20109;-69
2023/01/19 07:41:04;;;;;;;0.32;0.10;;;;;;;3.03;100.00;99266.34;5024487;28;20025;-68
2023/01/19 07:43:30;;;;;;;0.10;0.05;;;;;;;3.02;100.00;99278.38;5027588;28;20033;-68
2023/01/19 07:45:57;;;;;;;1.70;0.20;;;;;;;3.04;100.00;99278.25;5027042;28;20125;-68
2023/01/19 07:48:22;;;;;;;1.45;0.20;;;;;;;3.06;100.00;99284.09;5023566;28;20037;-69
2023/01/19 07:50:48;;;;;;;8.57;0.30;;;;;;;3.12;100.00;99293.91;5027790;28;20045;-68
2023/01/19 07:53:13;;;;;;;0.40;0.10;;;;;;;3.18;100.00;99303.69;5026210;28;20048;-64
2023/01/19 07:55:38;;;;;;;0.20;0.10;;;;;;;3.27;100.00;99313.22;5027900;28;20067;-67
2023/01/19 07:58:06;;;;;;;0.20;0.10;;;;;;;3.32;100.00;99316.22;5028221;28;20033;-68
2023/01/19 08:00:32;;;;;;;0.60;0.10;;;;;;;3.23;100.00;99322.16;5024123;28;20466;-68
2023/01/19 08:02:59;;;;;;;0.38;0.10;;;;;;;3.26;100.00;99327.06;5029981;28;20029;-70
2023/01/19 08:05:26;;;;;;;1.15;0.13;;;;;;;3.24;100.00;99337.47;5028613;28;20036;-68
2023/01/19 08:07:51;;;;;;;3.92;0.20;;;;;;;3.28;100.00;99332.88;5030055;28;20506;-68
2023/01/19 08:10:17;;;;;;;1.95;0.30;;;;;;;3.26;100.00;99347.66;5025088;28;20043;-68
2023/01/19 08:12:43;;;;;;;0.95;0.30;;;;;;;3.23;100.00;99340.97;5025143;28;20129;-68
2023/01/19 08:15:09;;;;;;;0.82;0.30;;;;;;;3.28;100.00;99341.44;5024031;28;20157;-67
2023/01/19 08:17:35;;;;;;;1.83;0.20;;;;;;;3.28;100.00;99330.31;5024463;28;20030;-68
2023/01/19 08:20:01;;;;;;;1.00;0.20;;;;;;;3.28;100.00;99328.56;5029264;28;20036;-68
2023/01/19 08:22:26;;;;;;;0.50;0.20;;;;;;;3.34;100.00;99330.59;5023880;28;20159;-68
2023/01/19 08:24:51;;;;;;;3.13;0.30;;;;;;;3.40;100.00;99334.44;5026614;28;20053;-69
2023/01/19 08:27:17;;;;;;;0.65;0.20;;;;;;;3.52;100.00;99337.75;5028280;28;20392;-68
2023/01/19 08:29:42;;;;;;;1.25;0.20;;;;;;;3.77;100.00;99328.81;5026032;28;20460;-68
2023/01/19 08:32:08;;;;;;;0.28;0.00;;;;;;;4.32;100.00;99345.53;5028432;28;20040;-68
2023/01/19 08:34:34;;;;;;;0.00;0.00;;;;;;;4.62;95.29;99355.78;5025733;28;20048;-69
2023/01/19 08:36:59;;;;;;;1.55;0.30;;;;;;;4.72;97.85;99345.50;5029119;28;20034;-68
2023/01/19 08:39:26;;;;;;;1.10;0.30;;;;;;;4.76;96.96;99344.25;5027380;28;20051;-68
2023/01/19 08:41:51;;;;;;;0.70;0.20;;;;;;;4.73;98.16;99341.94;5025251;28;20050;-68
2023/01/19 08:44:17;;;;;;;0.75;0.10;;;;;;;4.68;97.09;99344.13;5024318;28;20033;-69
2023/01/19 08:46:43;;;;;;;0.15;0.00;;;;;;;4.72;93.57;99340.34;5024686;28;20065;-69
2023/01/19 08:49:08;;;;;;;0.25;0.00;;;;;;;4.73;94.91;99331.59;5026569;28;20043;-68
2023/01/19 08:51:34;;;;;;;1.50;0.10;;;;;;;4.75;92.68;99339.22;5029035;28;20033;-69
2023/01/19 08:54:00;;;;;;;0.43;0.10;;;;;;;4.76;93.51;99335.69;5030167;28;20036;-68
2023/01/19 08:56:25;;;;;;;0.70;0.00;;;;;;;4.83;92.48;99347.09;5029111;28;20067;-69
2023/01/19 08:58:51;;;;;;;1.67;0.10;;;;;;;4.80;93.26;99342.22;5031726;28;20057;-69
2023/01/19 09:01:19;;;;;;;0.35;0.10;;;;;;;4.78;90.55;99341.53;5030687;28;20503;-69
2023/01/19 09:03:44;;;;;;;1.90;0.10;;;;;;;4.81;90.90;99352.41;5030472;28;20033;-68
2023/01/19 09:06:13;;;;;;;0.30;0.00;;;;;;;4.94;85.77;99346.97;5028120;28;20476;-68
2023/01/19 09:08:39;;;;;;;0.17;0.00;;;;;;;4.96;86.77;99347.66;5026752;28;20362;-69
2023/01/19 09:11:10;;;;;;;0.15;0.03;;;;;;;4.97;87.77;99364.78;5028526;28;20032;-68
2023/01/19 09:13:35;;;;;;;0.55;0.08;;;;;;;5.00;89.29;99373.06;5031032;28;20126;-68
2023/01/19 09:16:02;;;;;;;0.65;0.10;;;;;;;5.04;85.70;99370.22;5027610;28;20529;-69
2023/01/19 09:18:28;;;;;;;0.20;0.10;;;;;;;5.08;86.45;99390.47;5030777;28;20507;-68
2023/01/19 09:20:56;;;;;;;0.47;0.05;;;;;;;5.06;85.75;99394.13;5030015;28;20075;-68
2023/01/19 09:23:22;;;;;;;0.30;0.05;;;;;;;5.05;88.66;99398.47;5031997;28;20055;-68
2023/01/19 09:25:48;;;;;;;0.30;0.10;;;;;;;5.05;91.62;99408.00;5023223;28;20115;-69
2023/01/19 09:28:16;;;;;;;0.70;0.20;;;;;;;5.03;96.76;99405.56;5024552;28;20079;-69
2023/01/19 09:30:43;;;;;;;0.98;0.30;;;;;;;5.09;100.00;99414.53;5025197;28;20048;-69
2023/01/19 09:33:11;;;;;;;0.65;0.20;;;;;;;5.07;100.00;99417.25;5026581;28;20045;-69
2023/01/19 09:35:38;;;;;;;1.15;0.30;;;;;;;5.03;100.00;99430.56;5027778;28;20038;-68
2023/01/19 09:38:06;;;;;;;0.60;0.20;;;;;;;5.01;100.00;99433.25;5033222;28;20029;-68
2023/01/19 09:40:32;;;;;;;1.00;0.30;;;;;;;4.99;100.00;99441.13;5025981;28;20098;-68
2023/01/19 09:43:15;;;;;;;1.48;0.57;;;;;;;4.90;100.00;99441.13;5029462;28;20057;-68
2023/01/19 09:46:10;;;;;;;1.45;0.35;;;;;;;4.90;100.00;99446.28;5024420;28;20134;-68
2023/01/19 09:48:52;;;;;;;1.30;0.30;;;;;;;4.96;100.00;99451.72;5024651;28;20037;-67
2023/01/19 09:51:21;;;;;;;0.95;0.35;;;;;;;4.99;100.00;99455.81;5027474;28;20378;-68
2023/01/19 09:53:59;;;;;;;1.15;0.30;;;;;;;5.00;100.00;99449.69;5027867;28;20064;-68
2023/01/19 09:56:27;;;;;;;0.95;0.30;;;;;;;5.02;100.00;99454.72;5025784;28;20041;-68
2023/01/19 09:58:52;;;;;;;0.57;0.30;;;;;;;5.06;100.00;99453.50;5030438;28;21872;-69
2023/01/19 10:01:30;;;;;;;3.08;1.48;;;;;;;5.08;100.00;99454.19;5027700;28;20033;-69
2023/01/19 10:04:33;;;;;;;2.05;1.17;;;;;;;5.06;100.00;99456.91;5024366;28;20030;-68
2023/01/19 10:07:08;;;;;;;1.98;1.02;;;;;;;5.06;100.00;99458.69;5027067;28;20516;-67
2023/01/19 10:09:52;;;;;;;3.42;0.50;;;;;;;5.07;100.00;99462.91;5029443;28;20039;-68
2023/01/19 10:12:40;;;;;;;0.50;0.20;;;;;;;5.03;100.00;99464.09;5020111;28;20076;-68
2023/01/19 10:15:24;;;;;;;4.07;1.33;;;;;;;5.01;100.00;99461.66;5004956;28;20119;-68
2023/01/19 10:18:16;;;;;;;7.97;1.65;;;;;;;5.07;100.00;99455.16;5008065;28;20052;-68
2023/01/19 10:20:49;;;;;;;1.58;0.47;;;;;;;5.14;100.00;99464.81;4988179;28;20172;-68
2023/01/19 10:23:24;;;;;;;3.60;1.80;;;;;;;5.15;100.00;99463.03;5008587;28;20501;-68
2023/01/19 10:25:50;;;;;;;1.55;0.40;;;;;;;5.13;100.00;99460.59;5009681;28;20136;-68
2023/01/19 10:28:22;;;;;;;0.38;0.10;;;;;;;5.19;100.00;99447.16;5009125;28;20036;-68
2023/01/19 10:30:47;;;;;;;0.50;0.20;;;;;;;5.26;100.00;99452.56;5008468;28;20123;-68
2023/01/19 10:33:14;;;;;;;2.45;0.22;;;;;;;5.27;93.07;99452.44;5010079;28;20042;-68
2023/01/19 10:35:39;;;;;;;1.20;0.10;;;;;;;5.29;91.08;99447.94;5008317;28;20041;-68
2023/01/19 10:38:05;;;;;;;0.55;0.10;;;;;;;5.30;85.06;99449.59;5008994;28;20037;-69
2023/01/19 10:40:36;;;;;;;0.40;0.10;;;;;;;5.32;86.11;99452.03;5008286;28;20683;-68
2023/01/19 10:43:33;;;;;;;0.52;0.10;;;;;;;5.29;75.10;99442.78;5002593;28;20034;-69
2023/01/19 10:46:00;;;;;;;0.95;0.10;;;;;;;5.29;80.98;99437.63;5014031;28;20049;-68
2023/01/19 10:48:34;;;;;;;0.40;0.20;;;;;;;5.27;83.69;99433.53;5004653;28;20029;-68
2023/01/19 10:51:02;;;;;;;0.82;0.20;;;;;;;5.26;82.63;99435.31;5008771;28;20378;-69
2023/01/19 10:53:27;;;;;;;1.58;0.00;;;;;;;5.29;81.61;99434.22;5030279;28;20124;-68
2023/01/19 10:56:35;;;;;;;0.25;0.00;;;;;;;5.36;72.15;99445.66;5029545;28;20480;-68
2023/01/19 10:59:04;;;;;;;0.20;0.00;;;;;;;5.38;77.00;99445.50;4988609;28;20093;-68
2023/01/19 11:01:34;;;;;;;0.63;0.10;;;;;;;5.39;79.36;99450.53;4988856;28;20057;-68
2023/01/19 11:04:17;;;;;;;1.08;0.28;;;;;;;5.43;80.08;99462.22;4988955;28;20057;-68
2023/01/19 11:06:42;;;;;;;2.80;0.60;;;;;;;5.40;84.91;99475.41;4988795;28;20089;-67
2023/01/19 11:09:19;;;;;;;2.35;0.55;;;;;;;5.37;89.63;99473.09;4988254;28;20042;-67
2023/01/19 11:11:50;;;;;;;1.95;0.60;;;;;;;5.38;95.60;99487.66;4986953;28;20597;-69
2023/01/19 11:14:21;;;;;;;1.52;0.52;;;;;;;5.41;99.14;99476.22;4992278;28;20045;-69
2023/01/19 11:16:51;;;;;;;1.52;0.50;;;;;;;5.37;100.00;99483.44;4980659;28;20496;-68
2023/01/19 11:19:37;;;;;;;1.30;0.38;;;;;;;5.38;100.00;99486.84;4989399;28;20155;-68
2023/01/19 11:22:21;;;;;;;1.25;0.50;;;;;;;5.31;100.00;99495.13;4986668;28;20046;-68
2023/01/19 11:24:47;;;;;;;3.28;0.80;;;;;;;5.34;100.00;99506.94;4978543;28;20042;-68
2023/01/19 11:27:18;;;;;;;1.33;0.40;;;;;;;5.33;100.00;99510.47;4988617;28;20049;-68
2023/01/19 11:30:16;;;;;;;0.90;0.30;;;;;;;5.28;100.00;99520.41;5007844;28;20060;-68
2023/01/19 11:32:42;;;;;;;1.38;0.40;;;;;;;5.24;100.00;99529.34;5021928;28;20049;-68
2023/01/19 11:35:39;;;;;;;1.75;0.63;;;;;;;5.20;100.00;99530.59;5029740;28;20029;-68
2023/01/19 11:38:14;;;;;;;1.20;0.50;;;;;;;5.18;100.00;99535.09;5018658;28;20389;-68
2023/01/19 11:40:44;;;;;;;1.90;0.57;;;;;;;5.16;100.00;99530.06;5020416;28;20036;-68
2023/01/19 11:43:12;;;;;;;1.08;0.32;;;;;;;5.14;100.00;99544.03;5027073;28;20060;-68
2023/01/19 11:45:38;;;;;;;1.30;0.45;;;;;;;5.15;100.00;99543.09;5030458;28;20436;-68
2023/01/19 11:48:06;;;;;;;1.83;0.50;;;;;;;5.14;100.00;99557.78;5031468;28;20108;-68
2023/01/19 11:50:40;;;;;;;1.30;0.60;;;;;;;5.10;100.00;99558.16;5029265;28;20049;-65
2023/01/19 11:53:23;;;;;;;1.92;0.63;;;;;;;5.05;100.00;99563.72;5025305;28;20040;-68